createdAt,value
2017-11-06T00:00:47.698Z,4.48
2017-11-06T00:01:47.734Z,4.42
2017-11-06T00:03:40.718Z,4.44
2017-11-06T00:04:40.771Z,4.44
2017-11-06T00:06:33.769Z,4.53
2017-11-06T00:07:33.805Z,4.50
2017-11-06T00:09:26.807Z,4.44
2017-11-06T00:10:26.842Z,4.38
2017-11-06T00:12:19.818Z,4.31
2017-11-06T00:13:19.875Z,4.37
2017-11-06T00:15:12.874Z,4.44
2017-11-06T00:16:12.910Z,4.45
2017-11-06T00:18:05.894Z,4.40
2017-11-06T00:19:05.949Z,4.44
2017-11-06T00:20:58.947Z,4.42
2017-11-06T00:21:58.981Z,4.34
2017-11-06T00:23:51.963Z,4.28
2017-11-06T00:24:52.016Z,4.26
2017-11-06T00:26:45.012Z,4.34
2017-11-06T00:27:45.048Z,4.26
2017-11-06T00:29:38.048Z,4.37
2017-11-06T00:30:38.085Z,4.38
2017-11-06T00:32:31.065Z,4.45
2017-11-06T00:33:31.118Z,4.35
2017-11-06T00:35:24.125Z,4.44
2017-11-06T00:36:24.157Z,4.48
2017-11-06T00:38:17.134Z,4.37
2017-11-06T00:39:17.191Z,4.42
2017-11-06T00:41:10.190Z,4.42
2017-11-06T00:42:10.226Z,4.40
2017-11-06T00:44:03.208Z,4.40
2017-11-06T00:45:03.267Z,4.44
2017-11-06T00:46:56.267Z,4.35
2017-11-06T00:47:56.302Z,4.41
2017-11-06T00:49:49.307Z,4.42
2017-11-06T00:50:49.344Z,4.42
2017-11-06T00:52:42.319Z,4.49
2017-11-06T00:53:42.375Z,4.42
2017-11-06T00:55:35.414Z,4.48
2017-11-06T00:56:35.410Z,4.48
2017-11-06T00:58:28.393Z,4.52
2017-11-06T00:59:28.449Z,4.49
2017-11-06T01:01:21.464Z,4.38
2017-11-06T01:02:21.483Z,4.42
2017-11-06T01:04:14.468Z,4.38
2017-11-06T01:05:14.523Z,4.38
2017-11-06T01:07:07.521Z,4.38
2017-11-06T01:08:07.555Z,4.38
2017-11-06T01:10:00.559Z,4.37
2017-11-06T01:11:00.599Z,4.35
2017-11-06T01:12:53.573Z,4.31
2017-11-06T01:13:53.627Z,4.38
2017-11-06T01:15:46.638Z,4.32
2017-11-06T01:16:46.674Z,4.35
2017-11-06T01:18:39.656Z,4.23
2017-11-06T01:19:39.710Z,4.12
2017-11-06T01:21:32.707Z,4.13
2017-11-06T01:22:32.743Z,4.13
2017-11-06T01:24:25.718Z,4.12
2017-11-06T01:25:25.775Z,4.19
2017-11-06T01:27:18.781Z,4.12
2017-11-06T01:28:18.818Z,4.19
2017-11-06T01:30:11.824Z,4.16
2017-11-06T01:31:11.855Z,4.14
2017-11-06T01:33:04.838Z,4.16
2017-11-06T01:34:04.893Z,4.23
2017-11-06T01:35:57.893Z,4.16
2017-11-06T01:36:57.927Z,4.12
2017-11-06T01:38:50.904Z,4.22
2017-11-06T01:39:50.960Z,4.20
2017-11-06T01:41:43.963Z,4.14
2017-11-06T01:42:43.996Z,4.17
2017-11-06T01:44:36.978Z,4.17
2017-11-06T01:45:37.029Z,4.14
2017-11-06T01:47:30.024Z,4.13
2017-11-06T01:48:30.059Z,4.19
2017-11-06T01:50:23.056Z,4.20
2017-11-06T01:51:23.091Z,4.19
2017-11-06T01:53:16.079Z,4.19
2017-11-06T01:54:16.134Z,4.17
2017-11-06T01:56:09.135Z,4.13
2017-11-06T01:57:09.166Z,4.14
2017-11-06T01:59:02.155Z,4.17
2017-11-06T02:00:02.217Z,4.26
2017-11-06T02:01:55.202Z,4.22
2017-11-06T02:02:55.235Z,4.16
2017-11-06T02:04:48.213Z,4.20
2017-11-06T02:05:48.273Z,4.12
2017-11-06T02:07:41.272Z,4.12
2017-11-06T02:08:41.304Z,4.19
2017-11-06T02:10:34.305Z,4.16
2017-11-06T02:11:34.350Z,4.08
2017-11-06T02:13:27.314Z,4.16
2017-11-06T02:14:27.370Z,4.16
2017-11-06T02:16:20.367Z,4.14
2017-11-06T02:17:20.405Z,4.19
2017-11-06T02:19:13.394Z,4.20
2017-11-06T02:20:13.444Z,4.17
2017-11-06T02:22:06.438Z,4.19
2017-11-06T02:23:06.475Z,4.17
2017-11-06T02:24:59.458Z,4.14
2017-11-06T02:25:59.516Z,4.16
2017-11-06T02:27:52.506Z,4.13
2017-11-06T02:28:52.543Z,4.10
2017-11-06T02:30:45.540Z,4.20
2017-11-06T02:31:45.577Z,4.08
2017-11-06T02:33:38.559Z,4.16
2017-11-06T02:34:38.611Z,4.13
2017-11-06T02:36:31.619Z,4.22
2017-11-06T02:37:31.655Z,4.17
2017-11-06T02:39:24.638Z,4.19
2017-11-06T02:40:24.689Z,4.16
2017-11-06T02:42:17.684Z,4.19
2017-11-06T02:43:17.721Z,4.05
2017-11-06T02:45:10.698Z,4.16
2017-11-06T02:46:10.756Z,4.08
2017-11-06T02:48:03.756Z,4.17
2017-11-06T02:49:03.785Z,4.12
2017-11-06T02:50:56.792Z,4.06
2017-11-06T02:51:56.829Z,4.08
2017-11-06T02:53:49.801Z,4.12
2017-11-06T02:54:49.858Z,4.05
2017-11-06T02:56:42.854Z,4.05
2017-11-06T02:57:42.903Z,4.06
2017-11-06T02:59:35.873Z,4.05
2017-11-06T03:00:35.929Z,4.12
2017-11-06T03:02:28.924Z,4.04
2017-11-06T03:03:28.967Z,4.02
2017-11-06T03:05:21.939Z,4.10
2017-11-06T03:06:21.993Z,4.05
2017-11-06T03:08:14.993Z,4.04
2017-11-06T03:09:15.030Z,4.02
2017-11-06T03:11:08.022Z,3.95
2017-11-06T03:12:08.061Z,3.99
2017-11-06T03:14:01.040Z,3.99
2017-11-06T03:15:01.093Z,3.98
2017-11-06T03:16:54.099Z,3.98
2017-11-06T03:17:54.127Z,4.01
2017-11-06T03:19:47.106Z,3.95
2017-11-06T03:20:47.158Z,4.01
2017-11-06T03:22:40.666Z,3.96
2017-11-06T03:23:40.701Z,3.92
2017-11-06T03:25:33.676Z,3.99
2017-11-06T03:26:33.733Z,3.95
2017-11-06T03:28:26.732Z,3.96
2017-11-06T03:29:26.770Z,3.94
2017-11-06T03:31:19.773Z,3.95
2017-11-06T03:32:19.802Z,3.91
2017-11-06T03:34:12.792Z,3.92
2017-11-06T03:35:12.841Z,3.94
2017-11-06T03:37:05.848Z,3.96
2017-11-06T03:38:05.882Z,3.94
2017-11-06T03:39:58.866Z,3.88
2017-11-06T03:40:58.920Z,3.88
2017-11-06T03:42:51.918Z,3.88
2017-11-06T03:43:51.956Z,3.81
2017-11-06T03:45:44.932Z,3.81
2017-11-06T03:46:44.989Z,3.83
2017-11-06T03:48:37.987Z,3.87
2017-11-06T03:49:38.022Z,3.87
2017-11-06T03:51:31.022Z,3.91
2017-11-06T03:52:31.054Z,3.91
2017-11-06T03:54:24.037Z,3.84
2017-11-06T03:55:24.089Z,3.84
2017-11-06T03:57:17.086Z,3.69
2017-11-06T03:58:17.123Z,3.80
2017-11-06T04:00:10.100Z,3.86
2017-11-06T04:01:10.154Z,3.78
2017-11-06T04:03:03.164Z,3.77
2017-11-06T04:04:03.200Z,3.74
2017-11-06T04:05:56.181Z,3.68
2017-11-06T04:06:56.247Z,3.74
2017-11-06T04:08:49.227Z,3.74
2017-11-06T04:09:49.262Z,3.68
2017-11-06T04:11:42.258Z,3.74
2017-11-06T04:12:42.302Z,3.74
2017-11-06T04:14:35.271Z,3.73
2017-11-06T04:15:35.329Z,3.77
2017-11-06T04:17:28.327Z,3.74
2017-11-06T04:18:28.362Z,3.68
2017-11-06T04:20:21.343Z,3.70
2017-11-06T04:21:21.394Z,3.74
2017-11-06T04:23:14.901Z,3.78
2017-11-06T04:24:14.944Z,3.69
2017-11-06T04:26:07.910Z,3.70
2017-11-06T04:27:07.972Z,3.81
2017-11-06T04:29:00.967Z,3.87
2017-11-06T04:30:01.002Z,3.80
2017-11-06T04:31:54.000Z,3.74
2017-11-06T04:32:54.035Z,3.76
2017-11-06T04:34:47.012Z,3.58
2017-11-06T04:35:47.067Z,3.59
2017-11-06T04:37:40.063Z,3.68
2017-11-06T04:38:40.099Z,3.59
2017-11-06T04:40:33.086Z,3.69
2017-11-06T04:41:33.139Z,3.65
2017-11-06T04:43:26.134Z,3.55
2017-11-06T04:44:26.169Z,3.68
2017-11-06T04:46:19.147Z,3.63
2017-11-06T04:47:19.202Z,3.62
2017-11-06T04:49:12.207Z,3.62
2017-11-06T04:50:12.235Z,3.48
2017-11-06T04:52:05.230Z,3.63
2017-11-06T04:53:05.269Z,3.65
2017-11-06T04:54:58.243Z,3.60
2017-11-06T04:55:58.299Z,3.58
2017-11-06T04:57:51.295Z,3.60
2017-11-06T04:58:51.368Z,3.56
2017-11-06T05:00:44.307Z,3.56
2017-11-06T05:01:44.364Z,3.58
2017-11-06T05:03:37.366Z,3.53
2017-11-06T05:04:37.395Z,3.63
2017-11-06T05:06:30.370Z,3.59
2017-11-06T05:07:30.428Z,3.50
2017-11-06T05:09:23.424Z,3.65
2017-11-06T05:10:23.460Z,3.58
2017-11-06T05:12:16.456Z,3.60
2017-11-06T05:13:16.492Z,3.51
2017-11-06T05:15:09.469Z,3.62
2017-11-06T05:16:09.526Z,3.62
2017-11-06T05:18:02.524Z,3.66
2017-11-06T05:19:02.557Z,3.60
2017-11-06T05:20:55.534Z,3.70
2017-11-06T05:21:55.593Z,3.78
2017-11-06T05:23:48.587Z,3.87
2017-11-06T05:24:48.623Z,3.91
2017-11-06T05:26:41.605Z,3.94
2017-11-06T05:27:41.662Z,3.94
2017-11-06T05:29:34.665Z,3.92
2017-11-06T05:30:34.703Z,3.94
2017-11-06T05:32:27.711Z,3.92
2017-11-06T05:33:27.737Z,3.95
2017-11-06T05:35:20.720Z,3.96
2017-11-06T05:36:20.772Z,3.95
2017-11-06T05:38:13.770Z,3.91
2017-11-06T05:39:13.808Z,3.88
2017-11-06T05:41:06.782Z,3.98
2017-11-06T05:42:06.837Z,3.88
2017-11-06T05:43:59.840Z,3.98
2017-11-06T05:44:59.870Z,3.86
2017-11-06T05:46:52.851Z,3.87
2017-11-06T05:47:52.905Z,3.84
2017-11-06T05:49:45.902Z,3.91
2017-11-06T05:50:45.936Z,3.87
2017-11-06T05:52:38.932Z,3.87
2017-11-06T05:53:38.969Z,3.84
2017-11-06T05:55:31.943Z,3.81
2017-11-06T05:56:32.010Z,3.78
2017-11-06T05:58:24.997Z,3.76
2017-11-06T05:59:25.035Z,3.78
2017-11-06T06:01:18.010Z,3.74
2017-11-06T06:02:18.066Z,3.78
2017-11-06T06:04:11.078Z,3.76
2017-11-06T06:05:11.104Z,3.73
2017-11-06T06:07:04.089Z,3.74
2017-11-06T06:08:04.146Z,3.70
2017-11-06T06:09:57.140Z,3.65
2017-11-06T06:10:57.178Z,3.63
2017-11-06T06:12:50.174Z,3.63
2017-11-06T06:13:50.212Z,3.69
2017-11-06T06:15:43.206Z,3.59
2017-11-06T06:16:43.267Z,3.63
2017-11-06T06:18:36.260Z,3.59
2017-11-06T06:19:36.297Z,3.65
2017-11-06T06:21:29.299Z,3.56
2017-11-06T06:22:29.328Z,3.60
2017-11-06T06:24:22.333Z,3.60
2017-11-06T06:25:22.360Z,3.65
2017-11-06T06:27:15.341Z,3.70
2017-11-06T06:28:15.395Z,3.73
2017-11-06T06:30:08.391Z,3.78
2017-11-06T06:31:08.427Z,3.81
2017-11-06T06:33:01.426Z,3.94
2017-11-06T06:34:01.463Z,3.88
2017-11-06T06:35:54.436Z,4.01
2017-11-06T06:36:54.494Z,4.13
2017-11-06T06:38:47.489Z,4.12
2017-11-06T06:39:47.525Z,4.20
2017-11-06T06:41:40.504Z,4.16
2017-11-06T06:42:40.568Z,4.17
2017-11-06T06:44:33.553Z,4.17
2017-11-06T06:45:33.597Z,4.22
2017-11-06T06:47:26.567Z,4.24
2017-11-06T06:48:26.622Z,4.32
2017-11-06T06:50:19.620Z,4.38
2017-11-06T06:51:19.655Z,4.38
2017-11-06T06:53:12.656Z,4.48
2017-11-06T06:54:12.696Z,4.52
2017-11-06T06:56:05.668Z,4.48
2017-11-06T06:57:05.723Z,4.50
2017-11-06T06:58:58.722Z,4.44
2017-11-06T06:59:58.763Z,4.53
2017-11-06T07:01:51.733Z,4.55
2017-11-06T07:02:51.789Z,4.62
2017-11-06T07:04:44.788Z,4.59
2017-11-06T07:05:44.823Z,4.60
2017-11-06T07:07:37.807Z,4.62
2017-11-06T07:08:37.860Z,4.63
2017-11-06T07:10:30.900Z,4.67
2017-11-06T07:11:30.897Z,4.78
2017-11-06T07:13:23.892Z,4.86
2017-11-06T07:14:23.927Z,4.80
2017-11-06T07:16:16.903Z,4.89
2017-11-06T07:17:16.967Z,4.90
2017-11-06T07:19:09.957Z,4.90
2017-11-06T07:20:09.997Z,5.00
2017-11-06T07:22:02.974Z,4.94
2017-11-06T07:23:03.028Z,5.08
2017-11-06T07:24:56.029Z,5.14
2017-11-06T07:25:56.061Z,5.17
2017-11-06T07:27:49.039Z,5.20
2017-11-06T07:28:49.095Z,5.26
2017-11-06T07:30:42.093Z,5.29
2017-11-06T07:31:42.129Z,5.35
2017-11-06T07:33:35.131Z,5.33
2017-11-06T07:34:35.163Z,5.38
2017-11-06T07:36:28.149Z,5.38
2017-11-06T07:37:28.199Z,5.41
2017-11-06T07:39:21.197Z,5.51
2017-11-06T07:40:21.232Z,5.51
2017-11-06T07:42:14.218Z,5.43
2017-11-06T07:43:14.268Z,5.53
2017-11-06T07:45:07.271Z,5.65
2017-11-06T07:46:07.303Z,5.62
2017-11-06T07:48:00.303Z,5.61
2017-11-06T07:49:00.339Z,5.69
2017-11-06T07:50:53.343Z,5.71
2017-11-06T07:51:53.381Z,5.79
2017-11-06T07:53:46.405Z,5.76
2017-11-06T07:54:46.416Z,5.73
2017-11-06T07:56:39.399Z,5.80
2017-11-06T07:57:39.453Z,5.79
2017-11-06T07:59:32.457Z,5.83
2017-11-06T08:00:32.488Z,5.93
2017-11-06T08:02:25.475Z,5.99
2017-11-06T08:03:25.534Z,5.93
2017-11-06T08:05:18.529Z,6.09
2017-11-06T08:06:18.567Z,6.05
2017-11-06T08:08:11.568Z,6.27
2017-11-06T08:09:11.604Z,6.26
2017-11-06T08:11:04.588Z,6.24
2017-11-06T08:12:04.639Z,6.24
2017-11-06T08:13:57.637Z,6.33
2017-11-06T08:14:57.676Z,6.33
2017-11-06T08:16:50.657Z,6.31
2017-11-06T08:17:50.711Z,6.41
2017-11-06T08:19:43.717Z,6.33
2017-11-06T08:20:43.754Z,6.38
2017-11-06T08:22:37.240Z,6.48
2017-11-06T08:23:37.295Z,6.45
2017-11-06T08:25:30.297Z,6.52
2017-11-06T08:26:30.335Z,6.59
2017-11-06T08:28:23.340Z,6.54
2017-11-06T08:29:23.371Z,6.59
2017-11-06T08:31:16.356Z,6.62
2017-11-06T08:32:16.412Z,6.64
2017-11-06T08:34:09.414Z,6.78
2017-11-06T08:35:09.452Z,6.79
2017-11-06T08:37:02.458Z,6.87
2017-11-06T08:38:02.489Z,7.02
2017-11-06T08:39:55.487Z,7.06
2017-11-06T08:40:55.526Z,7.25
2017-11-06T08:42:48.502Z,7.40
2017-11-06T08:43:48.559Z,7.45
2017-11-06T08:45:41.564Z,7.63
2017-11-06T08:46:41.604Z,7.73
2017-11-06T08:48:34.601Z,7.85
2017-11-06T08:49:34.641Z,7.70
2017-11-06T08:51:27.618Z,7.53
2017-11-06T08:52:27.680Z,7.51
2017-11-06T08:54:20.718Z,7.42
2017-11-06T08:55:20.723Z,7.45
2017-11-06T08:57:13.700Z,7.47
2017-11-06T08:58:13.773Z,7.42
2017-11-06T09:00:06.792Z,7.48
2017-11-06T09:01:06.801Z,7.63
2017-11-06T09:02:59.778Z,7.69
2017-11-06T09:03:59.843Z,7.82
2017-11-06T09:05:52.841Z,8.01
2017-11-06T09:06:52.875Z,8.12
2017-11-06T09:08:45.874Z,8.26
2017-11-06T09:09:45.914Z,8.33
2017-11-06T09:11:38.908Z,8.36
2017-11-06T09:12:38.956Z,8.37
2017-11-06T09:14:31.973Z,8.41
2017-11-06T09:15:31.995Z,8.37
2017-11-06T09:17:24.977Z,8.34
2017-11-06T09:18:25.033Z,8.34
2017-11-06T09:20:18.036Z,8.31
2017-11-06T09:21:18.069Z,8.33
2017-11-06T09:23:11.557Z,8.33
2017-11-06T09:24:11.614Z,8.36
2017-11-06T09:26:04.616Z,8.44
2017-11-06T09:27:04.653Z,8.34
2017-11-06T09:28:57.671Z,8.34
2017-11-06T09:29:57.695Z,8.41
2017-11-06T09:31:50.676Z,8.41
2017-11-06T09:32:50.737Z,8.42
2017-11-06T09:34:43.732Z,8.49
2017-11-06T09:35:43.775Z,8.48
2017-11-06T09:37:36.753Z,8.52
2017-11-06T09:38:36.807Z,8.49
2017-11-06T09:40:29.812Z,8.52
2017-11-06T09:41:29.866Z,8.56
2017-11-06T09:43:22.826Z,8.60
2017-11-06T09:44:22.882Z,8.60
2017-11-06T09:46:15.925Z,8.73
2017-11-06T09:47:15.921Z,8.76
2017-11-06T09:49:08.925Z,8.88
2017-11-06T09:50:08.988Z,9.04
2017-11-06T09:52:01.948Z,9.08
2017-11-06T09:53:02.002Z,9.08
2017-11-06T09:54:55.002Z,9.08
2017-11-06T09:55:55.041Z,9.06
2017-11-06T09:57:48.038Z,9.21
2017-11-06T09:58:48.079Z,9.19
2017-11-06T10:00:41.096Z,9.19
2017-11-06T10:01:41.125Z,9.23
2017-11-06T10:03:34.148Z,9.19
2017-11-06T10:04:34.166Z,9.25
2017-11-06T10:06:27.166Z,9.06
2017-11-06T10:07:27.221Z,9.13
2017-11-06T10:09:20.205Z,9.11
2017-11-06T10:10:20.243Z,9.08
2017-11-06T10:12:13.227Z,9.13
2017-11-06T10:13:13.282Z,9.13
2017-11-06T10:15:06.287Z,9.08
2017-11-06T10:16:06.321Z,8.97
2017-11-06T10:17:59.306Z,9.08
2017-11-06T10:18:59.367Z,9.02
2017-11-06T10:20:52.407Z,9.11
2017-11-06T10:21:52.436Z,9.16
2017-11-06T10:23:45.899Z,9.26
2017-11-06T10:24:45.958Z,9.32
2017-11-06T10:26:38.956Z,9.34
2017-11-06T10:27:39.028Z,9.37
2017-11-06T10:29:31.998Z,9.39
2017-11-06T10:30:32.038Z,9.47
2017-11-06T10:32:25.016Z,9.61
2017-11-06T10:33:25.080Z,9.74
2017-11-06T10:35:18.084Z,9.73
2017-11-06T10:36:18.123Z,9.74
2017-11-06T10:38:11.105Z,9.68
2017-11-06T10:39:11.162Z,9.54
2017-11-06T10:41:04.175Z,9.36
2017-11-06T10:42:04.217Z,9.36
2017-11-06T10:43:57.188Z,9.34
2017-11-06T10:44:57.240Z,9.34
2017-11-06T10:46:50.245Z,9.39
2017-11-06T10:47:50.283Z,9.41
2017-11-06T10:49:43.285Z,9.54
2017-11-06T10:50:43.321Z,9.72
2017-11-06T10:52:36.308Z,9.87
2017-11-06T10:53:36.367Z,9.89
2017-11-06T10:55:29.372Z,10.07
2017-11-06T10:56:29.408Z,10.15
2017-11-06T10:58:22.385Z,10.38
2017-11-06T10:59:22.442Z,10.46
2017-11-06T11:01:15.441Z,10.64
2017-11-06T11:02:15.482Z,10.78
2017-11-06T11:04:08.471Z,10.72
2017-11-06T11:05:08.530Z,10.75
2017-11-06T11:07:01.529Z,10.76
2017-11-06T11:08:01.570Z,10.63
2017-11-06T11:09:54.571Z,10.46
2017-11-06T11:10:54.611Z,10.53
2017-11-06T11:12:47.594Z,10.38
2017-11-06T11:13:47.652Z,10.54
2017-11-06T11:15:40.651Z,10.46
2017-11-06T11:16:40.714Z,10.38
2017-11-06T11:18:33.674Z,10.46
2017-11-06T11:19:33.729Z,10.38
2017-11-06T11:21:26.732Z,10.35
2017-11-06T11:22:26.772Z,10.33
2017-11-06T11:24:19.777Z,10.40
2017-11-06T11:25:19.813Z,10.46
2017-11-06T11:27:12.819Z,10.49
2017-11-06T11:28:12.855Z,10.40
2017-11-06T11:30:05.861Z,10.64
2017-11-06T11:31:05.899Z,10.59
2017-11-06T11:32:58.879Z,10.60
2017-11-06T11:33:58.939Z,10.57
2017-11-06T11:35:51.961Z,10.54
2017-11-06T11:36:51.978Z,10.42
2017-11-06T11:38:44.968Z,10.51
2017-11-06T11:39:45.021Z,10.48
2017-11-06T11:41:38.031Z,10.44
2017-11-06T11:42:38.076Z,10.34
2017-11-06T11:44:31.080Z,10.49
2017-11-06T11:45:31.114Z,10.49
2017-11-06T11:47:24.094Z,10.61
2017-11-06T11:48:24.156Z,10.60
2017-11-06T11:50:17.196Z,10.63
2017-11-06T11:51:17.198Z,10.63
2017-11-06T11:53:10.179Z,10.63
2017-11-06T11:54:10.259Z,10.67
2017-11-06T11:56:03.240Z,10.76
2017-11-06T11:57:03.279Z,10.75
2017-11-06T11:58:56.261Z,10.81
2017-11-06T11:59:56.334Z,11.00
2017-11-06T12:01:49.329Z,11.10
2017-11-06T12:02:49.372Z,11.25
2017-11-06T12:04:42.376Z,11.22
2017-11-06T12:05:42.416Z,11.30
2017-11-06T12:07:35.402Z,11.35
2017-11-06T12:08:35.459Z,11.51
2017-11-06T12:10:28.463Z,11.51
2017-11-06T12:11:28.501Z,11.65
2017-11-06T12:13:21.503Z,11.52
2017-11-06T12:14:21.546Z,11.45
2017-11-06T12:16:14.550Z,11.43
2017-11-06T12:17:14.586Z,11.48
2017-11-06T12:19:07.573Z,11.44
2017-11-06T12:20:07.632Z,11.50
2017-11-06T12:22:00.640Z,11.70
2017-11-06T12:23:00.672Z,11.63
2017-11-06T12:24:53.689Z,11.70
2017-11-06T12:25:53.722Z,11.84
2017-11-06T12:27:46.705Z,11.86
2017-11-06T12:28:46.763Z,11.88
2017-11-06T12:30:39.774Z,11.77
2017-11-06T12:31:39.809Z,11.69
2017-11-06T12:33:32.795Z,11.75
2017-11-06T12:34:32.859Z,11.80
2017-11-06T12:36:25.859Z,11.78
2017-11-06T12:37:25.900Z,11.83
2017-11-06T12:39:18.885Z,11.75
2017-11-06T12:40:18.941Z,11.77
2017-11-06T12:42:11.945Z,11.77
2017-11-06T12:43:11.982Z,11.87
2017-11-06T12:45:04.989Z,11.70
2017-11-06T12:46:05.023Z,11.72
2017-11-06T12:47:58.010Z,11.60
2017-11-06T12:48:58.068Z,11.50
2017-11-06T12:50:51.076Z,11.47
2017-11-06T12:51:51.118Z,11.45
2017-11-06T12:53:44.153Z,11.54
2017-11-06T12:54:44.162Z,11.57
2017-11-06T12:56:37.167Z,11.52
2017-11-06T12:57:37.233Z,11.43
2017-11-06T12:59:30.195Z,11.40
2017-11-06T13:00:30.249Z,11.54
2017-11-06T13:02:23.255Z,11.51
2017-11-06T13:03:23.296Z,11.54
2017-11-06T13:05:16.299Z,11.52
2017-11-06T13:06:16.337Z,11.54
2017-11-06T13:08:09.326Z,11.36
2017-11-06T13:09:09.380Z,11.33
2017-11-06T13:11:02.383Z,11.22
2017-11-06T13:12:02.427Z,11.27
2017-11-06T13:13:55.403Z,11.32
2017-11-06T13:14:55.463Z,11.37
2017-11-06T13:16:48.468Z,11.47
2017-11-06T13:17:48.509Z,11.44
2017-11-06T13:19:41.492Z,11.44
2017-11-06T13:20:41.553Z,11.55
2017-11-06T13:22:34.556Z,11.55
2017-11-06T13:23:34.592Z,11.48
2017-11-06T13:25:27.595Z,11.48
2017-11-06T13:26:27.642Z,11.55
2017-11-06T13:28:20.616Z,11.81
2017-11-06T13:29:20.679Z,11.83
2017-11-06T13:31:13.683Z,11.94
2017-11-06T13:32:13.720Z,11.95
2017-11-06T13:34:06.728Z,12.06
2017-11-06T13:35:06.761Z,12.06
2017-11-06T13:36:59.762Z,12.06
2017-11-06T13:37:59.804Z,12.00
2017-11-06T13:39:52.785Z,12.00
2017-11-06T13:40:52.846Z,12.02
2017-11-06T13:42:45.848Z,12.03
2017-11-06T13:43:45.889Z,12.06
2017-11-06T13:45:38.890Z,12.06
2017-11-06T13:46:38.931Z,12.10
2017-11-06T13:48:31.919Z,12.13
2017-11-06T13:49:31.982Z,12.15
2017-11-06T13:51:24.978Z,12.03
2017-11-06T13:52:25.018Z,11.99
2017-11-06T13:54:18.006Z,11.94
2017-11-06T13:55:18.065Z,11.94
2017-11-06T13:57:11.074Z,11.81
2017-11-06T13:58:11.107Z,11.75
2017-11-06T14:00:04.095Z,11.78
2017-11-06T14:01:04.164Z,11.70
2017-11-06T14:02:57.156Z,11.75
2017-11-06T14:03:57.195Z,11.72
2017-11-06T14:05:50.199Z,11.75
2017-11-06T14:06:50.238Z,11.72
2017-11-06T14:08:43.219Z,11.66
2017-11-06T14:09:43.281Z,11.69
2017-11-06T14:11:36.287Z,11.63
2017-11-06T14:12:36.328Z,11.52
2017-11-06T14:14:29.314Z,11.52
2017-11-06T14:15:29.373Z,11.50
2017-11-06T14:17:22.389Z,11.40
2017-11-06T14:18:22.434Z,11.44
2017-11-06T14:20:15.421Z,11.32
2017-11-06T14:21:15.472Z,11.26
2017-11-06T14:23:08.985Z,11.26
2017-11-06T14:24:09.021Z,11.26
2017-11-06T14:26:02.025Z,11.15
2017-11-06T14:27:02.064Z,11.10
2017-11-06T14:28:55.050Z,11.14
2017-11-06T14:29:55.106Z,11.07
2017-11-06T14:31:48.111Z,10.96
2017-11-06T14:32:48.147Z,10.90
2017-11-06T14:34:41.135Z,10.86
2017-11-06T14:35:41.200Z,10.84
2017-11-06T14:37:34.193Z,10.87
2017-11-06T14:38:34.233Z,10.74
2017-11-06T14:40:27.218Z,10.79
2017-11-06T14:41:27.287Z,10.63
2017-11-06T14:43:20.322Z,10.68
2017-11-06T14:44:20.320Z,10.63
2017-11-06T14:46:13.322Z,10.57
2017-11-06T14:47:13.362Z,10.60
2017-11-06T14:49:06.343Z,10.60
2017-11-06T14:50:06.407Z,10.61
2017-11-06T14:51:59.401Z,10.53
2017-11-06T14:52:59.442Z,10.53
2017-11-06T14:54:52.449Z,10.54
2017-11-06T14:55:52.486Z,10.53
2017-11-06T14:57:45.492Z,10.37
2017-11-06T14:58:45.530Z,10.48
2017-11-06T15:00:38.514Z,10.48
2017-11-06T15:01:38.570Z,10.37
2017-11-06T15:03:31.574Z,10.34
2017-11-06T15:04:31.613Z,10.37
2017-11-06T15:06:24.613Z,10.23
2017-11-06T15:07:24.652Z,10.22
2017-11-06T15:09:17.637Z,10.22
2017-11-06T15:10:17.697Z,10.26
2017-11-06T15:12:10.699Z,10.15
2017-11-06T15:13:10.740Z,10.19
2017-11-06T15:15:03.726Z,10.09
2017-11-06T15:16:03.783Z,10.10
2017-11-06T15:17:56.797Z,10.07
2017-11-06T15:18:56.838Z,10.02
2017-11-06T15:20:49.823Z,9.99
2017-11-06T15:21:49.881Z,9.95
2017-11-06T15:23:43.392Z,9.91
2017-11-06T15:24:43.427Z,9.91
2017-11-06T15:26:36.430Z,9.79
2017-11-06T15:27:36.467Z,9.82
2017-11-06T15:29:29.458Z,9.76
2017-11-06T15:30:29.516Z,9.76
2017-11-06T15:32:22.519Z,9.73
2017-11-06T15:33:22.557Z,9.84
2017-11-06T15:35:15.553Z,9.77
2017-11-06T15:36:15.612Z,9.76
2017-11-06T15:38:08.618Z,9.74
2017-11-06T15:39:08.657Z,9.73
2017-11-06T15:41:01.643Z,9.73
2017-11-06T15:42:01.705Z,9.72
2017-11-06T15:43:54.701Z,9.64
2017-11-06T15:44:54.740Z,9.64
2017-11-06T15:46:47.743Z,9.58
2017-11-06T15:47:47.782Z,9.55
2017-11-06T15:49:40.768Z,9.39
2017-11-06T15:50:40.824Z,9.31
2017-11-06T15:52:33.826Z,9.13
2017-11-06T15:53:33.864Z,9.00
2017-11-06T15:55:26.849Z,8.94
2017-11-06T15:56:26.908Z,8.84
2017-11-06T15:58:19.913Z,8.79
2017-11-06T15:59:19.948Z,8.79
2017-11-06T16:01:12.934Z,8.70
2017-11-06T16:02:12.996Z,8.61
2017-11-06T16:04:05.991Z,8.53
2017-11-06T16:05:06.029Z,8.38
2017-11-06T16:06:59.033Z,8.31
2017-11-06T16:07:59.069Z,8.30
2017-11-06T16:09:52.058Z,8.31
2017-11-06T16:10:52.114Z,8.33
2017-11-06T16:12:45.120Z,8.30
2017-11-06T16:13:45.154Z,8.33
2017-11-06T16:15:38.138Z,8.30
2017-11-06T16:16:38.192Z,8.30
2017-11-06T16:18:31.204Z,8.12
2017-11-06T16:19:31.239Z,8.06
2017-11-06T16:21:24.217Z,7.97
2017-11-06T16:22:24.287Z,8.05
2017-11-06T16:24:17.278Z,7.83
2017-11-06T16:25:17.313Z,7.82
2017-11-06T16:27:10.363Z,7.82
2017-11-06T16:28:10.356Z,7.80
2017-11-06T16:30:03.336Z,7.76
2017-11-06T16:31:03.399Z,7.67
2017-11-06T16:32:56.409Z,7.60
2017-11-06T16:33:56.443Z,7.56
2017-11-06T16:35:49.426Z,7.50
2017-11-06T16:36:49.485Z,7.51
2017-11-06T16:38:42.483Z,7.38
2017-11-06T16:39:42.517Z,7.36
2017-11-06T16:41:35.498Z,7.42
2017-11-06T16:42:35.559Z,7.33
2017-11-06T16:44:28.562Z,7.40
2017-11-06T16:45:28.596Z,7.47
2017-11-06T16:47:21.603Z,7.40
2017-11-06T16:48:21.642Z,7.40
2017-11-06T16:50:14.631Z,7.32
2017-11-06T16:51:14.681Z,7.31
2017-11-06T16:53:07.688Z,7.35
2017-11-06T16:54:07.730Z,7.40
2017-11-06T16:56:00.701Z,7.47
2017-11-06T16:57:00.761Z,7.42
2017-11-06T16:58:53.760Z,7.43
2017-11-06T16:59:53.796Z,7.42
2017-11-06T17:01:46.797Z,7.38
2017-11-06T17:02:46.858Z,7.33
2017-11-06T17:04:39.846Z,7.11
2017-11-06T17:05:39.873Z,7.15
2017-11-06T17:07:32.886Z,7.11
2017-11-06T17:08:32.925Z,7.02
2017-11-06T17:10:25.904Z,7.05
2017-11-06T17:11:25.963Z,6.96
2017-11-06T17:13:18.964Z,6.96
2017-11-06T17:14:18.998Z,6.92
2017-11-06T17:16:11.978Z,6.89
2017-11-06T17:17:12.043Z,6.85
2017-11-06T17:19:05.034Z,6.96
2017-11-06T17:20:05.074Z,6.97
2017-11-06T17:21:58.079Z,6.81
2017-11-06T17:22:58.111Z,6.87
2017-11-06T17:24:51.096Z,6.85
2017-11-06T17:25:51.155Z,6.88
2017-11-06T17:27:44.152Z,6.79
2017-11-06T17:28:44.195Z,6.77
2017-11-06T17:30:37.170Z,6.74
2017-11-06T17:31:37.226Z,6.74
2017-11-06T17:33:30.228Z,6.72
2017-11-06T17:34:30.266Z,6.77
2017-11-06T17:36:23.244Z,6.79
2017-11-06T17:37:23.303Z,6.77
2017-11-06T17:39:16.314Z,6.69
2017-11-06T17:40:16.354Z,6.69
2017-11-06T17:42:09.356Z,6.63
2017-11-06T17:43:09.392Z,6.59
2017-11-06T17:45:02.371Z,6.52
2017-11-06T17:46:02.428Z,6.46
2017-11-06T17:47:55.425Z,6.45
2017-11-06T17:48:55.466Z,6.36
2017-11-06T17:50:48.441Z,6.35
2017-11-06T17:51:48.502Z,6.31
2017-11-06T17:53:41.521Z,6.27
2017-11-06T17:54:41.559Z,6.30
2017-11-06T17:56:34.554Z,6.35
2017-11-06T17:57:34.606Z,6.26
2017-11-06T17:59:27.604Z,6.22
2017-11-06T18:00:27.649Z,6.17
2017-11-06T18:02:20.644Z,6.02
2017-11-06T18:03:20.682Z,6.09
2017-11-06T18:05:13.670Z,6.12
2017-11-06T18:06:13.724Z,6.12
2017-11-06T18:08:07.232Z,6.02
2017-11-06T18:09:07.267Z,6.07
2017-11-06T18:11:00.249Z,6.04
2017-11-06T18:12:00.310Z,5.91
2017-11-06T18:13:53.830Z,5.87
2017-11-06T18:14:53.858Z,5.90
2017-11-06T18:16:46.833Z,5.82
2017-11-06T18:17:46.888Z,5.87
2017-11-06T18:19:39.889Z,5.93
2017-11-06T18:20:39.926Z,5.89
2017-11-06T18:22:32.924Z,6.12
2017-11-06T18:23:32.960Z,6.05
2017-11-06T18:25:25.941Z,6.09
2017-11-06T18:26:26.000Z,6.17
2017-11-06T18:28:18.997Z,6.27
2017-11-06T18:29:19.031Z,6.20
2017-11-06T18:31:14.156Z,6.22
2017-11-06T18:32:12.812Z,6.14
2017-11-06T18:34:05.574Z,6.26
2017-11-06T18:35:05.624Z,6.17
2017-11-06T18:36:58.597Z,6.08
2017-11-06T18:37:58.648Z,6.07
2017-11-06T18:39:52.156Z,6.07
2017-11-06T18:40:52.192Z,5.98
2017-11-06T18:42:45.191Z,5.84
2017-11-06T18:43:45.229Z,5.69
2017-11-06T18:45:38.208Z,5.69
2017-11-06T18:46:38.267Z,5.64
2017-11-06T18:48:31.266Z,5.53
2017-11-06T18:49:31.311Z,5.46
2017-11-06T18:51:24.300Z,5.50
2017-11-06T18:52:24.340Z,5.54
2017-11-06T18:54:17.359Z,5.53
2017-11-06T18:55:17.396Z,5.50
2017-11-06T18:57:10.378Z,5.38
2017-11-06T18:58:10.430Z,5.43
2017-11-06T19:00:03.429Z,5.41
2017-11-06T19:01:03.465Z,5.43
2017-11-06T19:02:56.468Z,5.43